Accueil
METAR-TAF:

METAR-TAF

Aéroports :

Matagami, Québec, Canada

latitude: 49-46N, longitude: 077-49W, altitude: 281 m

Observation

Le bulletin a été fait il y a 12 minutes, à 15:49 UTC
Vent 14 kt de ouest/nord-ouest avec des rafales jusqu'à 20 kt
Température -24°C
Humidité 63%
Pression 1023 hPa
Visibilité: 3.6 km
Ciel couvert à une hauteur de 2400 ft
brume sèche

METAR: CYNM 191549Z AUTO 30014G20KT 2 1/4SM HZ OVC024 M24/M29 A3020 RMK VIS VRB 1 1/2-3 SLP260

Heure: 11:01 (16:01 UTC)


TAF: absent

Observations et prévisions météorologiques de plus de 4000 aéroports (messages METAR et TAF).

Les stations disponibles sont représentées par des disques jaunes et rouges sur la carte.

Passer la souris dessus pour voir le nom de la station.

Cliquer dessus pour voir les observations et prévisions météorologiques.

Pour changer de carte: cliquez sur les boutons verts avec une croix noire pour zoomer, sur le bouton vert avec un tiret pour effectuer un zoom arrière, ou sur les flèches vertes pour les cartes adjacentes.


METAR-TAF: